Have a Safe July 4th! 

Flight Track Log - Related Links

Times and Time Zones

All times are in EDT time to prevent confusion due to time zone crossing. See the RSP305 flight status page for this flight to view local times or setup timezone preferences in your user account.

Time Position Orientation Groundspeed Altitude Reporting Facility
EDT Latitude Longitude Course Direction KTS MPH feet Rate Location/Type
Thu 06:20:28 PM 33.2667 -111.6167 140° Southeast 175 201 3,300  Level Phoenix TRACON
Thu 06:21:34 PM 33.2167 -111.5500 132° Southeast 223 257 5,100 1,714 Climbing Phoenix TRACON
Thu 06:22:34 PM 33.1833 -111.6000 231° Southwest 221 254 6,900 1,309 Climbing Phoenix TRACON
Thu 06:23:24 PM 33.1550 -111.6522 237° Southwest 234 269 7,500 643 Climbing Albuquerque Center
Thu 06:24:26 PM 33.1222 -111.7328 244° Southwest 264 304 8,100 1,113 Climbing Albuquerque Center
Thu 06:25:00 PM 33.7219 -112.5709 299° West  Level Estimated
Thu 06:25:28 PM 33.1450 -111.8189 288° West 272 313 9,800  Level Albuquerque Center
Thu 06:26:29 PM 33.1750 -111.9167 290° West 262 302 11,900 1,512 Climbing Albuquerque Center
Thu 06:27:31 PM 33.2014 -111.9994 291° West 266 306 12,900 532 Climbing Albuquerque Center
Thu 06:28:33 PM 33.2292 -112.0906 290° West 289 333 13,000 48 Climbing Albuquerque Center
Thu 06:29:35 PM 33.2544 -112.1711 291° West 259 298 13,000 537 Level Albuquerque Center
Thu 06:30:36 PM 33.2786 -112.2519 290° West 257 296 14,100 1,561 Climbing Albuquerque Center
Thu 06:31:38 PM 33.3031 -112.3303 290° West 252 290 16,200 1,645 Climbing Albuquerque Center
Thu 06:32:40 PM 33.3256 -112.4067 289° West 246 283 17,500 1,317 Climbing Albuquerque Center
Thu 06:33:41 PM 33.3508 -112.4883 290° West 259 298 18,900 1,415 Climbing Albuquerque Center
Thu 06:34:43 PM 33.3828 -112.5911 290° West 272 313 20,400 1,258 Climbing Albuquerque Center
Thu 06:35:45 PM 33.4081 -112.6706 291° West 275 316 21,500 1,122 Climbing Albuquerque Center
Thu 06:36:46 PM 33.4339 -112.7600 289° West 282 325 22,700 1,073 Climbing Albuquerque Center
Thu 06:37:48 PM 33.4600 -112.8506 289° West 287 330 23,700 1,113 Climbing Albuquerque Center
Thu 06:38:50 PM 33.4811 -112.9656 282° West 293 337 25,000 1,016 Climbing Albuquerque Center
Thu 06:39:52 PM 33.5003 -113.0647 283° West 301 346 25,800 878 Climbing Albuquerque Center
Thu 06:40:53 PM 33.5189 -113.1639 283° West 305 351 26,800 878 Climbing Albuquerque Center
Thu 06:41:55 PM 33.5381 -113.2644 283° West 309 356 27,600 823 Climbing Albuquerque Center
Thu 06:42:57 PM 33.5578 -113.3678 283° West 316 364 28,500 780 Climbing Albuquerque Center
Thu 06:43:58 PM 33.5772 -113.4708 283° West 318 366 29,200 829 Climbing Albuquerque Center
Thu 06:45:00 PM 33.5967 -113.5744 283° West 320 368 30,200 823 Climbing Albuquerque Center
Thu 06:46:02 PM 33.6186 -113.6897 283° West 318 366 30,900 683 Climbing Albuquerque Center
Thu 06:47:03 PM 33.6372 -113.7936 282° West 319 367 31,600 683 Climbing Albuquerque Center
Thu 06:48:05 PM 33.6567 -113.8992 283° West 322 371 32,300 683 Climbing Albuquerque Center
Thu 06:49:06 PM 33.6758 -114.0022 283° West 319 367 33,000 885 Climbing Albuquerque Center
Thu 06:50:07 PM 33.6978 -114.1256 282° West 316 364 34,100 884 Climbing Albuquerque Center
Thu 06:51:15 PM 33.7192 -114.2383 283° West 312 359 34,900 738 Climbing Los Angeles Center
Thu 06:52:17 PM 33.7378 -114.3397 282° West 312 359 35,700 532 Climbing Los Angeles Center
Thu 06:53:19 PM 33.7567 -114.4428 282° West 316 364 36,000 145 Climbing Los Angeles Center
Thu 06:54:21 PM 33.7744 -114.5514 281° West 332 382 36,000  Level Los Angeles Center
Thu 06:55:23 PM 33.7817 -114.6661 274° West 344 396 36,000  Level Los Angeles Center
Thu 06:56:26 PM 33.7903 -114.8072 274° West 354 407 36,000  Level Los Angeles Center
Thu 06:57:28 PM 33.7967 -114.9222 274° West 348 400 36,000  Level Los Angeles Center
Thu 06:58:30 PM 33.8042 -115.0378 274° West 346 398 36,000  Level Los Angeles Center
Thu 06:59:32 PM 33.8092 -115.1533 273° West 347 399 36,000  Level Los Angeles Center
Thu 07:00:34 PM 33.8156 -115.2694 274° West 349 402 36,000  Level Los Angeles Center
Thu 07:01:36 PM 33.8214 -115.3833 274° West 347 399 36,000  Level Los Angeles Center
Thu 07:02:38 PM 33.8456 -115.5186 282° West 351 404 36,000  Level Los Angeles Center
Thu 07:03:40 PM 33.8811 -115.6292 291° West 355 409 36,000  Level Los Angeles Center
Thu 07:04:42 PM 33.9158 -115.7403 291° West 358 412 36,000  Level Los Angeles Center
Thu 07:05:45 PM 33.9508 -115.8494 291° West 354 407 36,000  Level Los Angeles Center
Thu 07:06:47 PM 33.9844 -115.9561 291° West 346 398 36,000  Level Los Angeles Center
Thu 07:07:49 PM 34.0261 -116.0856 291° West 346 398 36,000  Level Los Angeles Center
Thu 07:08:51 PM 34.0597 -116.1933 291° West 346 398 36,000  Level Los Angeles Center
Thu 07:09:53 PM 34.0936 -116.2994 291° West 342 394 36,000  Level Los Angeles Center
Thu 07:10:55 PM 34.1275 -116.4094 290° West 348 400 36,000  Level Los Angeles Center
Thu 07:11:57 PM 34.1575 -116.5253 287° West 359 413 36,000  Level Los Angeles Center
Thu 07:12:59 PM 34.1961 -116.6300 294° West 347 399 36,000  Level Los Angeles Center
Thu 07:14:01 PM 34.2372 -116.7592 291° West 345 397 36,000  Level Los Angeles Center
Thu 07:15:03 PM 34.2700 -116.8667 290° West 342 394 36,000  Level Los Angeles Center
Thu 07:16:06 PM 34.3031 -116.9733 291° West 339 390 36,000  Level Los Angeles Center
Thu 07:17:08 PM 34.3358 -117.0803 290° West 340 391 36,000  Level Los Angeles Center
Thu 07:18:10 PM 34.3736 -117.2044 290° West 338 389 36,000  Level Los Angeles Center
Thu 07:19:12 PM 34.4006 -117.2947 290° West 341 392 36,000  Level Los Angeles Center
Thu 07:20:14 PM 34.4392 -117.4225 290° West 339 390 36,000  Level Los Angeles Center
Thu 07:21:16 PM 34.4714 -117.5308 290° West 340 391 36,000  Level Los Angeles Center
Thu 07:22:18 PM 34.5044 -117.6394 290° West 344 396 36,000  Level Los Angeles Center
Thu 07:23:20 PM 34.5367 -117.7486 290° West 342 394 36,000  Level Los Angeles Center
Thu 07:24:22 PM 34.5686 -117.8567 290° West 340 391 36,000  Level Los Angeles Center
Thu 07:25:25 PM 34.6006 -117.9667 289° West 344 396 36,000  Level Los Angeles Center
Thu 07:26:27 PM 34.6336 -118.0747 290° West 343 395 36,000  Level Los Angeles Center
Thu 07:27:29 PM 34.6956 -118.1997 301° West 356 410 36,000  Level Los Angeles Center
Thu 07:28:31 PM 34.7447 -118.3039 300° West 358 412 36,000  Level Los Angeles Center
Thu 07:29:33 PM 34.7925 -118.4044 300° West 350 403 36,000  Level Los Angeles Center
Thu 07:30:35 PM 34.8450 -118.5161 300° West 353 406 36,000  Level Los Angeles Center
Thu 07:31:37 PM 34.8922 -118.6164 300° West 347 399 36,000  Level Los Angeles Center
Thu 07:32:39 PM 34.9419 -118.7203 300° West 353 406 36,000  Level Los Angeles Center
Thu 07:33:42 PM 34.9903 -118.8244 300° West 355 409 36,000  Level Los Angeles Center
Thu 07:34:44 PM 35.0489 -118.9517 299° West 360 414 36,000  Level Los Angeles Center
Thu 07:35:46 PM 35.0986 -119.0556 300° West 357 411 36,000  Level Los Angeles Center
Thu 07:36:48 PM 35.1478 -119.1619 299° West 360 414 36,000  Level Los Angeles Center
Thu 07:37:50 PM 35.1975 -119.2675 300° West 360 414 36,000  Level Los Angeles Center
Thu 07:38:52 PM 35.2472 -119.3747 300° West 362 417 36,000  Level Los Angeles Center
Thu 07:39:54 PM 35.2972 -119.4803 300° West 362 417 36,000  Level Los Angeles Center
Thu 07:40:57 PM 35.3553 -119.6083 299° West 360 414 36,000  Level Los Angeles Center
Thu 07:41:59 PM 35.4028 -119.7139 299° West 355 409 36,000  Level Los Angeles Center
Thu 07:43:01 PM 35.4508 -119.8175 300° West 353 406 36,000  Level Los Angeles Center
Thu 07:44:03 PM 35.4975 -119.9211 299° West 348 400 36,000  Level Los Angeles Center
Thu 07:45:05 PM 35.5456 -120.0264 299° West 355 409 36,000  Level Los Angeles Center
Thu 07:46:07 PM 35.5978 -120.1444 299° West 354 407 36,000  Level Los Angeles Center
Thu 07:46:58 PM 35.6403 -120.2361 300° West 355 409 36,000  Level Oakland Center
Thu 07:48:00 PM 35.6878 -120.3403 299° West 354 407 36,000  Level Oakland Center
Thu 07:49:01 PM 35.7336 -120.4472 298° West 356 410 36,000  Level Oakland Center
Thu 07:50:03 PM 35.7794 -120.5517 298° West 353 406 36,000 -98 Level Oakland Center
Thu 07:51:04 PM 35.8356 -120.6783 299° West 352 405 35,800 -927 Descending Oakland Center
Thu 07:52:06 PM 35.8844 -120.7886 299° West 365 420 34,100 -1,659 Descending Oakland Center
Thu 07:53:07 PM 35.9342 -120.9006 299° West 372 428 32,400 -1,659 Descending Oakland Center
Thu 07:54:09 PM 35.9861 -121.0108 300° West 375 432 30,700 -1,805 Descending Oakland Center
Thu 07:55:10 PM 36.0736 -121.0881 325° Northwest 389 448 28,700 -1,951 Descending Oakland Center
Thu 07:56:12 PM 36.1633 -121.1650 325° Northwest 393 452 26,700 -1,951 Descending Oakland Center
Thu 07:57:13 PM 36.2508 -121.2408 325° Northwest 388 447 24,700 -2,146 Descending Oakland Center
Thu 07:58:15 PM 36.3547 -121.3297 325° Northwest 380 437 22,300 -2,146 Descending Oakland Center
Thu 07:59:16 PM 36.4375 -121.4019 325° Northwest 368 423 20,300 -1,951 Descending Oakland Center
Thu 08:00:18 PM 36.5175 -121.4725 325° Northwest 356 410 18,300 -1,854 Descending Oakland Center
Thu 08:01:19 PM 36.5947 -121.5386 326° Northwest 343 395 16,500 -1,869 Descending Oakland Center
Thu 08:02:20 PM 36.6867 -121.5494 355° North 343 395 14,500 -2,098 Descending Oakland Center
Thu 08:03:22 PM 36.7736 -121.5558 357° North 320 368 12,200 -2,244 Descending Oakland Center
Thu 08:04:23 PM 36.8503 -121.5636 355° North 300 345 9,900 -2,049 Descending Oakland Center
Thu 08:05:25 PM 36.9436 -121.5731 355° North 285 328 8,000 -1,415 Descending Oakland Center
Thu 08:06:26 PM 37.0097 -121.6036 340° North 275 316 7,000 -1,426 Descending Oakland Center
Thu 08:07:27 PM 37.0733 -121.6514 329° Northwest 272 313 5,100 -976 Descending Oakland Center
Thu 08:08:29 PM 37.1367 -121.6953 331° Northwest 267 307 5,000 -244 Descending Oakland Center
Thu 08:09:30 PM 37.1839 -121.7331 327° Northwest 227 261 4,600 -732 Descending Oakland Center
Thu 08:10:32 PM 37.2242 -121.7781 318° Northwest 203 234 3,500 -1,024 Descending Oakland Center
Thu 08:11:33 PM 37.2642 -121.8233 318° Northwest 197 227 2,500 -976 Descending Oakland Center
Thu 08:12:35 PM 37.3033 -121.8658 319° Northwest 192 221 1,500 -829 Descending Oakland Center
Thu 08:13:36 PM 37.3319 -121.8956 320° Northwest 159 183 800 -689 Descending Oakland Center
Thu 08:14:37 PM 37.3578 -121.9247 318° Northwest 123 142 100 -689 Descending Oakland Center
Thu 08:16:00 PM 37.3500 -121.9167 North  Level FlightAware Approximate
Thu 08:23:00 PM 37.3627 -121.9291 North  Level Estimated

Login

Don't have an account? Register now (free) for customized features, flight alerts, and more!